createdAt,value
2023-01-13T00:00:02.410Z,1014.2
2023-01-13T00:01:02.249Z,1014.4
2023-01-13T00:02:02.463Z,1014.3
2023-01-13T00:03:02.420Z,1014.2
2023-01-13T00:04:02.358Z,1014.2
2023-01-13T00:05:02.415Z,1014.2
2023-01-13T00:06:02.297Z,1014.1
2023-01-13T00:07:02.126Z,1014.1
2023-01-13T00:08:02.142Z,1014.2
2023-01-13T00:09:01.975Z,1014.2
2023-01-13T00:10:02.387Z,1014.1
2023-01-13T00:11:02.103Z,1014.1
2023-01-13T00:12:02.159Z,1014
2023-01-13T00:13:02.026Z,1014
2023-01-13T00:14:02.074Z,1014.1
2023-01-13T00:15:01.942Z,1014
2023-01-13T00:16:02.107Z,1014
2023-01-13T00:17:02.126Z,1014
2023-01-13T00:18:02.213Z,1014.1
2023-01-13T00:19:02.008Z,1014
2023-01-13T00:20:02.044Z,1014
2023-01-13T00:21:01.801Z,1014
2023-01-13T00:22:01.825Z,1014
2023-01-13T00:23:02.845Z,1014
2023-01-13T00:24:02.643Z,1014
2023-01-13T00:25:02.620Z,1014
2023-01-13T00:26:02.522Z,1014
2023-01-13T00:27:02.583Z,1014.1
2023-01-13T00:28:02.428Z,1014.1
2023-01-13T00:29:02.482Z,1014.1
2023-01-13T00:30:02.406Z,1014.1
2023-01-13T00:31:02.357Z,1014.1
2023-01-13T00:32:02.429Z,1014
2023-01-13T00:33:02.480Z,1014.1
2023-01-13T00:34:02.443Z,1014.1
2023-01-13T00:35:02.417Z,1014.1
2023-01-13T00:36:02.490Z,1014.1
2023-01-13T00:37:02.410Z,1014.1
2023-01-13T00:38:02.275Z,1014.1
2023-01-13T00:39:02.247Z,1014.1
2023-01-13T00:40:02.114Z,1014.1
2023-01-13T00:41:02.102Z,1014.1
2023-01-13T00:42:02.023Z,1014.1
2023-01-13T00:43:01.966Z,1014.1
2023-01-13T00:44:01.934Z,1014
2023-01-13T00:45:01.822Z,1014
2023-01-13T00:46:01.733Z,1014.1
2023-01-13T00:47:01.788Z,1014.1
2023-01-13T00:48:01.824Z,1014
2023-01-13T00:49:02.849Z,1014
2023-01-13T00:50:02.611Z,1014.1
2023-01-13T00:51:02.686Z,1014.1
2023-01-13T00:52:02.502Z,1014.1
2023-01-13T00:53:02.625Z,1014.1
2023-01-13T00:54:02.493Z,1014
2023-01-13T00:55:02.540Z,1014.3
2023-01-13T00:56:02.387Z,1014.1
2023-01-13T00:57:02.407Z,1014.1
2023-01-13T00:58:02.351Z,1014.2
2023-01-13T00:59:02.122Z,1014.1
2023-01-13T01:00:02.151Z,1014.1
2023-01-13T01:01:02.717Z,1014.1
2023-01-13T01:02:02.562Z,1014
2023-01-13T01:03:02.444Z,1014
2023-01-13T01:04:02.405Z,1014
2023-01-13T01:05:02.370Z,1013.9
2023-01-13T01:06:02.374Z,1014
2023-01-13T01:07:02.388Z,1014
2023-01-13T01:08:02.160Z,1014
2023-01-13T01:09:02.341Z,1014
2023-01-13T01:10:02.191Z,1014
2023-01-13T01:11:02.256Z,1014
2023-01-13T01:12:02.048Z,1014
2023-01-13T01:13:02.068Z,1014
2023-01-13T01:14:01.890Z,1014
2023-01-13T01:15:01.825Z,1014
2023-01-13T01:16:01.811Z,1014
2023-01-13T01:17:02.020Z,1014
2023-01-13T01:18:02.016Z,1013.9
2023-01-13T01:19:01.843Z,1013.9
2023-01-13T01:20:01.928Z,1014
2023-01-13T01:21:02.804Z,1014
2023-01-13T01:22:02.600Z,1013.9
2023-01-13T01:23:02.731Z,1013.9
2023-01-13T01:24:02.545Z,1013.9
2023-01-13T01:25:02.548Z,1013.9
2023-01-13T01:26:02.477Z,1013.9
2023-01-13T01:27:02.537Z,1013.8
2023-01-13T01:28:02.548Z,1013.9
2023-01-13T01:29:02.773Z,1013.8
2023-01-13T01:30:02.566Z,1013.8
2023-01-13T01:31:02.746Z,1013.8
2023-01-13T01:32:01.847Z,1013.8
2023-01-13T01:33:01.907Z,1013.8
2023-01-13T01:34:01.836Z,1013.7
2023-01-13T01:35:01.768Z,1013.8
2023-01-13T01:36:02.691Z,1013.8
2023-01-13T01:37:02.541Z,1013.8
2023-01-13T01:38:02.582Z,1013.8
2023-01-13T01:39:02.441Z,1013.8
2023-01-13T01:40:02.537Z,1013.7
2023-01-13T01:41:02.435Z,1013.7
2023-01-13T01:42:02.246Z,1013.6
2023-01-13T01:43:02.323Z,1013.6
2023-01-13T01:44:02.345Z,1013.6
2023-01-13T01:45:02.133Z,1013.6
2023-01-13T01:46:02.393Z,1013.6
2023-01-13T01:47:02.619Z,1013.6
2023-01-13T01:48:02.355Z,1013.6
2023-01-13T01:49:02.417Z,1013.6
2023-01-13T01:50:02.348Z,1013.6
2023-01-13T01:51:02.311Z,1013.4
2023-01-13T01:52:02.197Z,1013.5
2023-01-13T01:53:02.027Z,1013.5
2023-01-13T01:54:02.059Z,1013.5
2023-01-13T01:55:01.909Z,1013.5
2023-01-13T01:56:01.944Z,1013.5
2023-01-13T01:57:01.841Z,1013.6
2023-01-13T01:58:01.780Z,1013.6
2023-01-13T01:59:02.801Z,1013.5
2023-01-13T02:00:02.691Z,1013.6
2023-01-13T02:01:03.428Z,1013.6
2023-01-13T02:02:02.472Z,1013.5
2023-01-13T02:03:02.332Z,1013.5
2023-01-13T02:04:02.274Z,1013.6
2023-01-13T02:05:02.108Z,1013.5
2023-01-13T02:06:02.182Z,1013.5
2023-01-13T02:07:02.051Z,1013.4
2023-01-13T02:08:02.102Z,1013.4
2023-01-13T02:09:01.919Z,1013.5
2023-01-13T02:10:02.007Z,1013.4
2023-01-13T02:11:01.750Z,1013.4
2023-01-13T02:12:01.886Z,1013.4
2023-01-13T02:13:01.716Z,1013.3
2023-01-13T02:14:02.781Z,1013.3
2023-01-13T02:15:02.724Z,1013.4
2023-01-13T02:16:02.948Z,1013.3
2023-01-13T02:17:01.911Z,1013.3
2023-01-13T02:18:01.833Z,1013.2
2023-01-13T02:19:01.775Z,1013.3
2023-01-13T02:20:02.727Z,1013.3
2023-01-13T02:21:02.630Z,1013.2
2023-01-13T02:22:02.696Z,1013.3
2023-01-13T02:23:02.597Z,1013.2
2023-01-13T02:24:02.619Z,1013.2
2023-01-13T02:25:02.642Z,1013.1
2023-01-13T02:26:02.618Z,1013.1
2023-01-13T02:27:02.932Z,1013.1
2023-01-13T02:28:02.098Z,1013.1
2023-01-13T02:29:02.071Z,1013.1
2023-01-13T02:30:01.990Z,1013.1
2023-01-13T02:31:01.965Z,1013.1
2023-01-13T02:32:01.738Z,1013.1
2023-01-13T02:33:01.843Z,1013.1
2023-01-13T02:34:02.809Z,1013
2023-01-13T02:35:02.736Z,1013
2023-01-13T02:36:02.757Z,1013.1
2023-01-13T02:37:02.666Z,1012.9
2023-01-13T02:38:02.561Z,1012.9
2023-01-13T02:39:02.494Z,1013
2023-01-13T02:40:02.527Z,1013
2023-01-13T02:41:02.446Z,1012.9
2023-01-13T02:42:02.332Z,1013
2023-01-13T02:43:02.246Z,1013.1
2023-01-13T02:44:02.057Z,1013
2023-01-13T02:45:02.237Z,1013
2023-01-13T02:46:02.101Z,1013
2023-01-13T02:47:02.142Z,1013
2023-01-13T02:48:02.182Z,1013
2023-01-13T02:49:01.922Z,1013
2023-01-13T02:50:01.928Z,1013
2023-01-13T02:51:01.733Z,1012.9
2023-01-13T02:52:01.877Z,1012.8
2023-01-13T02:53:02.756Z,1012.9
2023-01-13T02:54:02.614Z,1012.9
2023-01-13T02:55:02.640Z,1012.9
2023-01-13T02:56:02.515Z,1012.8
2023-01-13T02:57:02.513Z,1012.9
2023-01-13T02:58:02.450Z,1012.9
2023-01-13T02:59:02.306Z,1012.9
2023-01-13T03:00:02.415Z,1012.8
2023-01-13T03:01:02.685Z,1012.9
2023-01-13T03:02:03.074Z,1012.9
2023-01-13T03:03:02.144Z,1013
2023-01-13T03:04:01.840Z,1013
2023-01-13T03:05:01.946Z,1012.9
2023-01-13T03:06:01.726Z,1012.9
2023-01-13T03:07:02.749Z,1013
2023-01-13T03:08:02.614Z,1012.9
2023-01-13T03:09:02.714Z,1012.9
2023-01-13T03:10:02.586Z,1012.8
2023-01-13T03:11:02.681Z,1012.8
2023-01-13T03:12:02.439Z,1012.7
2023-01-13T03:13:02.451Z,1013
2023-01-13T03:14:02.511Z,1012.8
2023-01-13T03:15:02.371Z,1012.8
2023-01-13T03:16:02.414Z,1012.8
2023-01-13T03:17:02.648Z,1012.7
2023-01-13T03:18:02.510Z,1012.8
2023-01-13T03:19:02.499Z,1012.8
2023-01-13T03:20:02.569Z,1012.7
2023-01-13T03:21:02.422Z,1012.7
2023-01-13T03:22:02.408Z,1012.7
2023-01-13T03:23:02.338Z,1012.8
2023-01-13T03:24:02.297Z,1012.7
2023-01-13T03:25:02.312Z,1012.7
2023-01-13T03:26:02.266Z,1012.7
2023-01-13T03:27:02.116Z,1012.8
2023-01-13T03:28:02.186Z,1012.8
2023-01-13T03:29:02.071Z,1012.7
2023-01-13T03:30:02.189Z,1012.7
2023-01-13T03:31:02.348Z,1012.7
2023-01-13T03:32:02.385Z,1012.7
2023-01-13T03:33:02.588Z,1012.6
2023-01-13T03:34:02.521Z,1012.7
2023-01-13T03:35:02.397Z,1012.7
2023-01-13T03:36:02.530Z,1012.6
2023-01-13T03:37:02.488Z,1012.6
2023-01-13T03:38:02.240Z,1012.6
2023-01-13T03:39:02.301Z,1012.7
2023-01-13T03:40:02.121Z,1012.7
2023-01-13T03:41:02.232Z,1012.7
2023-01-13T03:42:02.018Z,1012.7
2023-01-13T03:43:02.092Z,1012.8
2023-01-13T03:44:01.937Z,1012.8
2023-01-13T03:45:01.920Z,1012.6
2023-01-13T03:46:01.957Z,1012.7
2023-01-13T03:47:02.369Z,1012.7
2023-01-13T03:48:02.226Z,1012.7
2023-01-13T03:49:02.203Z,1012.8
2023-01-13T03:50:02.248Z,1012.7
2023-01-13T03:51:02.152Z,1012.8
2023-01-13T03:52:01.990Z,1012.7
2023-01-13T03:53:01.976Z,1012.7
2023-01-13T03:54:01.848Z,1012.8
2023-01-13T03:55:01.868Z,1012.7
2023-01-13T03:56:01.791Z,1012.8
2023-01-13T03:57:01.772Z,1012.7
2023-01-13T03:58:02.965Z,1012.7
2023-01-13T03:59:01.721Z,1012.6
2023-01-13T04:00:02.758Z,1012.8
2023-01-13T04:01:03.148Z,1012.7
2023-01-13T04:02:02.802Z,1012.7
2023-01-13T04:03:02.636Z,1012.7
2023-01-13T04:04:02.871Z,1012.7
2023-01-13T04:05:02.651Z,1012.6
2023-01-13T04:06:02.570Z,1012.7
2023-01-13T04:07:02.655Z,1012.7
2023-01-13T04:08:02.571Z,1012.8
2023-01-13T04:09:02.577Z,1012.6
2023-01-13T04:10:02.750Z,1012.7
2023-01-13T04:11:02.608Z,1012.7
2023-01-13T04:12:02.500Z,1012.7
2023-01-13T04:13:02.485Z,1012.6
2023-01-13T04:14:02.359Z,1012.7
2023-01-13T04:15:02.316Z,1012.7
2023-01-13T04:16:02.519Z,1012.7
2023-01-13T04:17:02.563Z,1012.6
2023-01-13T04:18:02.497Z,1012.8
2023-01-13T04:19:02.417Z,1012.7
2023-01-13T04:20:02.392Z,1012.7
2023-01-13T04:21:02.254Z,1012.6
2023-01-13T04:22:02.179Z,1012.6
2023-01-13T04:23:02.064Z,1012.7
2023-01-13T04:24:02.020Z,1012.7
2023-01-13T04:25:01.911Z,1012.6
2023-01-13T04:26:01.904Z,1012.8
2023-01-13T04:27:01.821Z,1012.7
2023-01-13T04:28:01.759Z,1012.7
2023-01-13T04:29:02.700Z,1012.7
2023-01-13T04:30:02.571Z,1012.7
2023-01-13T04:31:02.845Z,1012.8
2023-01-13T04:32:01.951Z,1012.7
2023-01-13T04:33:01.821Z,1012.6
2023-01-13T04:34:01.720Z,1012.7
2023-01-13T04:35:02.719Z,1012.6
2023-01-13T04:36:02.607Z,1012.6
2023-01-13T04:37:02.574Z,1012.6
2023-01-13T04:38:02.531Z,1012.6
2023-01-13T04:39:02.493Z,1012.6
2023-01-13T04:40:02.417Z,1012.5
2023-01-13T04:41:02.280Z,1012.7
2023-01-13T04:42:02.255Z,1012.5
2023-01-13T04:43:02.068Z,1012.6
2023-01-13T04:44:02.080Z,1012.5
2023-01-13T04:45:01.940Z,1012.7
2023-01-13T04:46:02.131Z,1012.5
2023-01-13T04:47:02.245Z,1012.6
2023-01-13T04:48:02.266Z,1012.6
2023-01-13T04:49:02.163Z,1012.6
2023-01-13T04:50:02.059Z,1012.6
2023-01-13T04:51:02.067Z,1012.5
2023-01-13T04:52:01.920Z,1012.5
2023-01-13T04:53:01.839Z,1012.5
2023-01-13T04:54:01.721Z,1012.6
2023-01-13T04:55:02.716Z,1012.6
2023-01-13T04:56:02.624Z,1012.6
2023-01-13T04:57:02.628Z,1012.7
2023-01-13T04:58:02.529Z,1012.7
2023-01-13T04:59:02.529Z,1012.6
2023-01-13T05:00:02.470Z,1012.5
2023-01-13T05:01:02.472Z,1012.6
2023-01-13T05:02:02.858Z,1012.6
2023-01-13T05:03:02.658Z,1012.6
2023-01-13T05:04:02.594Z,1012.6
2023-01-13T05:05:02.681Z,1012.6
2023-01-13T05:06:02.459Z,1012.6
2023-01-13T05:07:02.386Z,1012.7
2023-01-13T05:08:02.374Z,1012.6
2023-01-13T05:09:02.324Z,1012.6
2023-01-13T05:10:02.210Z,1012.5
2023-01-13T05:11:02.171Z,1012.6
2023-01-13T05:12:02.094Z,1012.6
2023-01-13T05:13:02.049Z,1012.6
2023-01-13T05:14:01.898Z,1012.6
2023-01-13T05:15:01.867Z,1012.6
2023-01-13T05:16:02.109Z,1012.6
2023-01-13T05:17:02.414Z,1012.5
2023-01-13T05:18:02.356Z,1012.6
2023-01-13T05:19:02.290Z,1012.7
2023-01-13T05:20:02.174Z,1012.7
2023-01-13T05:21:02.186Z,1012.7
2023-01-13T05:22:01.930Z,1012.6
2023-01-13T05:23:01.959Z,1012.7
2023-01-13T05:24:01.760Z,1012.7
2023-01-13T05:25:01.780Z,1012.7
2023-01-13T05:26:02.754Z,1012.7
2023-01-13T05:27:02.595Z,1013
2023-01-13T05:28:02.528Z,1012.7
2023-01-13T05:29:02.426Z,1012.7
2023-01-13T05:30:02.411Z,1012.7
2023-01-13T05:31:02.458Z,1012.7
2023-01-13T05:32:02.286Z,1012.6
2023-01-13T05:33:02.342Z,1012.6
2023-01-13T05:34:02.117Z,1012.6
2023-01-13T05:35:02.078Z,1012.7
2023-01-13T05:36:01.965Z,1012.6
2023-01-13T05:37:01.935Z,1012.5
2023-01-13T05:38:01.831Z,1012.6
2023-01-13T05:39:01.790Z,1012.6
2023-01-13T05:40:02.772Z,1012.7
2023-01-13T05:41:02.623Z,1012.6
2023-01-13T05:42:02.596Z,1012.6
2023-01-13T05:43:02.500Z,1012.7
2023-01-13T05:44:02.553Z,1012.8
2023-01-13T05:45:02.531Z,1012.6
2023-01-13T05:46:02.715Z,1012.7
2023-01-13T05:47:01.847Z,1012.7
2023-01-13T05:48:01.996Z,1012.7
2023-01-13T05:49:01.780Z,1012.6
2023-01-13T05:50:02.778Z,1012.6
2023-01-13T05:51:02.643Z,1012.6
2023-01-13T05:52:02.681Z,1012.6
2023-01-13T05:53:02.527Z,1012.6
2023-01-13T05:54:02.554Z,1012.7
2023-01-13T05:55:02.552Z,1012.5
2023-01-13T05:56:02.411Z,1012.6
2023-01-13T05:57:02.557Z,1012.6
2023-01-13T05:58:02.517Z,1012.7
2023-01-13T05:59:02.384Z,1012.5
2023-01-13T06:00:02.443Z,1012.5
2023-01-13T06:01:02.699Z,1012.6
2023-01-13T06:02:02.440Z,1012.6
2023-01-13T06:03:02.666Z,1012.6
2023-01-13T06:04:02.811Z,1012.7
2023-01-13T06:05:02.586Z,1012.6
2023-01-13T06:06:02.805Z,1012.6
2023-01-13T06:07:02.602Z,1012.6
2023-01-13T06:08:02.650Z,1012.6
2023-01-13T06:09:02.559Z,1012.6
2023-01-13T06:10:02.621Z,1012.6
2023-01-13T06:11:02.476Z,1012.6
2023-01-13T06:12:02.516Z,1012.6
2023-01-13T06:13:02.441Z,1012.7
2023-01-13T06:14:02.285Z,1012.6
2023-01-13T06:15:02.368Z,1012.6
2023-01-13T06:16:02.626Z,1012.5
2023-01-13T06:17:02.380Z,1012.8
2023-01-13T06:18:02.384Z,1012.7
2023-01-13T06:19:02.409Z,1012.8
2023-01-13T06:20:02.209Z,1012.7
2023-01-13T06:21:02.295Z,1012.8
2023-01-13T06:22:02.075Z,1012.7
2023-01-13T06:23:02.120Z,1012.8
2023-01-13T06:24:02.016Z,1012.8
2023-01-13T06:25:01.977Z,1012.7
2023-01-13T06:26:01.781Z,1012.7
2023-01-13T06:27:02.724Z,1012.7
2023-01-13T06:28:01.744Z,1012.7
2023-01-13T06:29:02.755Z,1012.7
2023-01-13T06:30:02.606Z,1012.7
2023-01-13T06:31:02.764Z,1012.6
2023-01-13T06:32:02.778Z,1012.7
2023-01-13T06:33:02.714Z,1012.7
2023-01-13T06:34:02.550Z,1012.7
2023-01-13T06:35:05.920Z,1012.7
2023-01-13T06:36:02.682Z,1012.8
2023-01-13T06:37:02.704Z,1012.8
2023-01-13T06:38:02.586Z,1012.7
2023-01-13T06:39:02.579Z,1012.7
2023-01-13T06:40:02.445Z,1012.7
2023-01-13T06:41:02.445Z,1012.7
2023-01-13T06:42:02.426Z,1012.7
2023-01-13T06:43:02.352Z,1012.7
2023-01-13T06:44:02.394Z,1012.7
2023-01-13T06:45:02.244Z,1012.7
2023-01-13T06:46:02.088Z,1012.8
2023-01-13T06:47:02.520Z,1012.7
2023-01-13T06:48:02.331Z,1012.7
2023-01-13T06:49:02.309Z,1012.6
2023-01-13T06:50:02.142Z,1012.7
2023-01-13T06:51:02.171Z,1012.7
2023-01-13T06:52:01.979Z,1012.7
2023-01-13T06:53:02.043Z,1012.7
2023-01-13T06:54:01.811Z,1012.8
2023-01-13T06:55:02.032Z,1012.7
2023-01-13T06:56:01.797Z,1012.6
2023-01-13T06:57:01.807Z,1012.7
2023-01-13T06:58:01.763Z,1012.6
2023-01-13T06:59:02.778Z,1012.7
2023-01-13T07:00:02.766Z,1012.7
2023-01-13T07:01:03.021Z,1012.6
2023-01-13T07:02:02.307Z,1012.7
2023-01-13T07:03:02.187Z,1012.7
2023-01-13T07:04:02.041Z,1012.7
2023-01-13T07:05:02.064Z,1012.7
2023-01-13T07:06:01.933Z,1012.7
2023-01-13T07:07:01.861Z,1012.7
2023-01-13T07:08:01.780Z,1012.8
2023-01-13T07:09:02.801Z,1012.7
2023-01-13T07:10:01.778Z,1012.7
2023-01-13T07:11:02.698Z,1012.6
2023-01-13T07:12:02.616Z,1012.7
2023-01-13T07:13:02.665Z,1012.8
2023-01-13T07:14:02.479Z,1012.7
2023-01-13T07:15:02.464Z,1012.7
2023-01-13T07:16:02.856Z,1012.7
2023-01-13T07:17:02.648Z,1012.6
2023-01-13T07:18:02.664Z,1012.7
2023-01-13T07:19:02.503Z,1012.7
2023-01-13T07:20:02.568Z,1012.7
2023-01-13T07:21:02.115Z,1012.8
2023-01-13T07:22:02.118Z,1012.7
2023-01-13T07:23:01.976Z,1012.6
2023-01-13T07:24:01.973Z,1012.6
2023-01-13T07:25:01.827Z,1012.6
2023-01-13T07:26:01.858Z,1012.6
2023-01-13T07:27:01.751Z,1012.7
2023-01-13T07:28:02.787Z,1012.8
2023-01-13T07:29:02.601Z,1012.7
2023-01-13T07:30:02.675Z,1012.7
2023-01-13T07:31:02.510Z,1012.7
2023-01-13T07:32:01.957Z,1012.8
2023-01-13T07:33:01.777Z,1012.6
2023-01-13T07:34:01.792Z,1012.7
2023-01-13T07:35:01.816Z,1012.7
2023-01-13T07:36:01.775Z,1012.8
2023-01-13T07:37:01.914Z,1012.8
2023-01-13T07:38:01.760Z,1012.8
2023-01-13T07:39:02.763Z,1012.7
2023-01-13T07:40:02.622Z,1012.7
2023-01-13T07:41:02.653Z,1012.8
2023-01-13T07:42:02.502Z,1012.9
2023-01-13T07:43:02.561Z,1012.7
2023-01-13T07:44:02.490Z,1012.8
2023-01-13T07:45:02.402Z,1012.8
2023-01-13T07:46:02.745Z,1012.7
2023-01-13T07:47:02.455Z,1012.7
2023-01-13T07:48:02.306Z,1012.7
2023-01-13T07:49:02.400Z,1012.8
2023-01-13T07:50:02.367Z,1012.7
2023-01-13T07:51:02.119Z,1012.8
2023-01-13T07:52:02.110Z,1012.8
2023-01-13T07:53:02.030Z,1012.8
2023-01-13T07:54:02.024Z,1012.7
2023-01-13T07:55:01.892Z,1012.8
2023-01-13T07:56:01.906Z,1012.6
2023-01-13T07:57:01.780Z,1012.8
2023-01-13T07:58:01.810Z,1012.8
2023-01-13T07:59:02.772Z,1012.8
2023-01-13T08:00:02.669Z,1012.8
2023-01-13T08:01:02.995Z,1012.7
2023-01-13T08:02:03.636Z,1012.8
2023-01-13T08:03:02.723Z,1012.7
2023-01-13T08:04:02.635Z,1012.7
2023-01-13T08:05:02.448Z,1012.8
2023-01-13T08:06:02.844Z,1012.7
2023-01-13T08:07:02.688Z,1012.9
2023-01-13T08:08:02.572Z,1012.8
2023-01-13T08:09:02.502Z,1012.8
2023-01-13T08:10:02.449Z,1012.8
2023-01-13T08:11:02.444Z,1012.8
2023-01-13T08:12:02.297Z,1012.9
2023-01-13T08:13:02.268Z,1012.8
2023-01-13T08:14:02.131Z,1012.8
2023-01-13T08:15:02.216Z,1012.8
2023-01-13T08:16:01.960Z,1012.8
2023-01-13T08:17:01.813Z,1012.8
2023-01-13T08:18:01.819Z,1012.7
2023-01-13T08:19:01.788Z,1012.8
2023-01-13T08:20:02.794Z,1012.8
2023-01-13T08:21:02.652Z,1012.8
2023-01-13T08:22:02.694Z,1012.8
2023-01-13T08:23:02.544Z,1012.8
2023-01-13T08:24:02.715Z,1012.8
2023-01-13T08:25:02.589Z,1012.9
2023-01-13T08:26:02.424Z,1012.8
2023-01-13T08:27:02.487Z,1012.9
2023-01-13T08:28:02.330Z,1012.9
2023-01-13T08:29:02.180Z,1012.7
2023-01-13T08:30:02.215Z,1012.9
2023-01-13T08:31:02.609Z,1012.9
2023-01-13T08:32:01.981Z,1012.9
2023-01-13T08:33:01.974Z,1013
2023-01-13T08:34:01.830Z,1012.9
2023-01-13T08:35:01.856Z,1013
2023-01-13T08:36:02.696Z,1013
2023-01-13T08:37:02.576Z,1013
2023-01-13T08:38:02.626Z,1013
2023-01-13T08:39:02.462Z,1013
2023-01-13T08:40:02.558Z,1013.1
2023-01-13T08:41:02.436Z,1013.1
2023-01-13T08:42:02.291Z,1013.1
2023-01-13T08:43:02.289Z,1013.1
2023-01-13T08:44:02.114Z,1013
2023-01-13T08:45:02.035Z,1013
2023-01-13T08:46:02.354Z,1013
2023-01-13T08:47:02.117Z,1013
2023-01-13T08:48:02.125Z,1013
2023-01-13T08:49:02.003Z,1013.1
2023-01-13T08:50:02.198Z,1013
2023-01-13T08:51:01.970Z,1013
2023-01-13T08:52:01.897Z,1012.9
2023-01-13T08:53:01.805Z,1012.9
2023-01-13T08:54:01.820Z,1013
2023-01-13T08:55:01.796Z,1013
2023-01-13T08:56:02.932Z,1013
2023-01-13T08:57:02.937Z,1012.8
2023-01-13T08:58:16.526Z,1013
2023-01-13T08:59:02.359Z,1012.9
2023-01-13T09:00:02.362Z,1012.8
2023-01-13T09:01:02.615Z,1012.9
2023-01-13T09:02:02.687Z,1012.8
2023-01-13T09:03:02.580Z,1012.8
2023-01-13T09:04:02.700Z,1013
2023-01-13T09:05:02.584Z,1012.9
2023-01-13T09:06:02.421Z,1012.8
2023-01-13T09:07:02.397Z,1012.9
2023-01-13T09:08:02.395Z,1012.9
2023-01-13T09:09:02.178Z,1013
2023-01-13T09:10:02.245Z,1013
2023-01-13T09:11:02.136Z,1013
2023-01-13T09:12:02.066Z,1013.1
2023-01-13T09:13:01.908Z,1013
2023-01-13T09:14:03.927Z,1013
2023-01-13T09:15:02.755Z,1013
2023-01-13T09:16:02.844Z,1013.1
2023-01-13T09:17:02.567Z,1013.1
2023-01-13T09:18:02.595Z,1013
2023-01-13T09:19:02.422Z,1013
2023-01-13T09:20:02.437Z,1013.1
2023-01-13T09:21:02.420Z,1013
2023-01-13T09:22:02.711Z,1012.9
2023-01-13T09:23:02.470Z,1013
2023-01-13T09:24:02.440Z,1013
2023-01-13T09:25:02.333Z,1012.9
2023-01-13T09:26:02.308Z,1013
2023-01-13T09:27:02.293Z,1013
2023-01-13T09:28:02.268Z,1012.9
2023-01-13T09:29:02.107Z,1012.9
2023-01-13T09:30:02.004Z,1013
2023-01-13T09:31:02.362Z,1012.9
2023-01-13T09:32:01.846Z,1012.9
2023-01-13T09:33:01.902Z,1012.9
2023-01-13T09:34:01.835Z,1012.9
2023-01-13T09:35:02.157Z,1012.6
2023-01-13T09:36:01.959Z,1012.8
2023-01-13T09:37:01.871Z,1012.9
2023-01-13T09:38:01.773Z,1012.8
2023-01-13T09:39:01.857Z,1012.8
2023-01-13T09:40:02.799Z,1012.8
2023-01-13T09:41:02.631Z,1012.8
2023-01-13T09:42:02.591Z,1012.8
2023-01-13T09:43:02.513Z,1012.8
2023-01-13T09:44:02.555Z,1012.8
2023-01-13T09:45:02.498Z,1012.7
2023-01-13T09:46:02.516Z,1012.7
2023-01-13T09:47:02.555Z,1012.7
2023-01-13T09:48:02.598Z,1012.7
2023-01-13T09:49:02.495Z,1012.7
2023-01-13T09:50:02.470Z,1012.6
2023-01-13T09:51:02.713Z,1012.8
2023-01-13T09:52:02.456Z,1012.7
2023-01-13T09:53:02.501Z,1012.7
2023-01-13T09:54:02.470Z,1012.7
2023-01-13T09:55:02.207Z,1012.8
2023-01-13T09:56:02.180Z,1012.6
2023-01-13T09:57:02.017Z,1012.7
2023-01-13T09:58:02.006Z,1012.6
2023-01-13T09:59:01.830Z,1012.6
2023-01-13T10:00:01.907Z,1012.6
2023-01-13T10:01:01.921Z,1012.8
2023-01-13T10:02:02.003Z,1012.6
2023-01-13T10:03:02.173Z,1012.7
2023-01-13T10:04:01.919Z,1012.6
2023-01-13T10:05:02.221Z,1012.4
2023-01-13T10:06:01.972Z,1012.5
2023-01-13T10:07:01.997Z,1012.5
2023-01-13T10:08:01.867Z,1012.6
2023-01-13T10:09:01.822Z,1012.6
2023-01-13T10:10:02.792Z,1012.5
2023-01-13T10:11:01.756Z,1012.6
2023-01-13T10:12:02.769Z,1012.5
2023-01-13T10:13:02.678Z,1012.5
2023-01-13T10:14:02.655Z,1012.5
2023-01-13T10:15:02.502Z,1012.5
2023-01-13T10:16:03.720Z,1012.6
2023-01-13T10:17:02.622Z,1012.6
2023-01-13T10:18:02.379Z,1012.4
2023-01-13T10:19:02.443Z,1012.5
2023-01-13T10:20:02.443Z,1012.7
2023-01-13T10:21:02.192Z,1012.5
2023-01-13T10:22:02.253Z,1012.4
2023-01-13T10:23:02.095Z,1012.4
2023-01-13T10:24:02.081Z,1012.4
2023-01-13T10:25:02.010Z,1012.5
2023-01-13T10:26:02.004Z,1012.4
2023-01-13T10:27:01.784Z,1012.4
2023-01-13T10:28:01.868Z,1012.4
2023-01-13T10:29:02.780Z,1012.4
2023-01-13T10:30:02.650Z,1012.3
2023-01-13T10:31:02.839Z,1012.3
2023-01-13T10:32:02.597Z,1012.3
2023-01-13T10:33:02.694Z,1012.3
2023-01-13T10:34:02.588Z,1012.3
2023-01-13T10:35:02.706Z,1012.3
2023-01-13T10:36:02.713Z,1012.3
2023-01-13T10:37:02.603Z,1012.3
2023-01-13T10:38:02.534Z,1012.2
2023-01-13T10:39:02.647Z,1012.2
2023-01-13T10:40:02.490Z,1012.2
2023-01-13T10:41:02.507Z,1012.2
2023-01-13T10:42:02.567Z,1012.2
2023-01-13T10:43:02.294Z,1012.4
2023-01-13T10:44:02.362Z,1012.2
2023-01-13T10:45:02.100Z,1012.2
2023-01-13T10:46:02.199Z,1012.3
2023-01-13T10:47:02.505Z,1012.3
2023-01-13T10:48:02.365Z,1012.2
2023-01-13T10:49:02.506Z,1012.3
2023-01-13T10:50:02.506Z,1012.3
2023-01-13T10:51:02.358Z,1012.2
2023-01-13T10:52:02.816Z,1012.2
2023-01-13T10:53:02.720Z,1012.2
2023-01-13T10:54:02.575Z,1012.1
2023-01-13T10:55:02.659Z,1012.2
2023-01-13T10:56:02.622Z,1012.1
2023-01-13T10:57:02.569Z,1012.2
2023-01-13T10:58:02.591Z,1012.2
2023-01-13T10:59:02.390Z,1012.1
2023-01-13T11:00:02.416Z,1012
2023-01-13T11:01:02.739Z,1012.1
2023-01-13T11:02:26.090Z,1012
2023-01-13T11:03:02.133Z,1012.1
2023-01-13T11:04:02.123Z,1012.1
2023-01-13T11:05:02.349Z,1012
2023-01-13T11:06:02.090Z,1012.1
2023-01-13T11:07:02.146Z,1011.9
2023-01-13T11:08:01.984Z,1012
2023-01-13T11:09:01.978Z,1011.9
2023-01-13T11:10:01.877Z,1011.9
2023-01-13T11:11:01.883Z,1011.9
2023-01-13T11:12:01.722Z,1011.8
2023-01-13T11:13:02.730Z,1011.9
2023-01-13T11:14:02.670Z,1011.9
2023-01-13T11:15:02.770Z,1011.8
2023-01-13T11:16:02.789Z,1011.9
2023-01-13T11:17:02.670Z,1011.9
2023-01-13T11:18:02.654Z,1011.8
2023-01-13T11:19:02.869Z,1011.9
2023-01-13T11:20:02.685Z,1012
2023-01-13T11:21:02.526Z,1012.1
2023-01-13T11:22:02.509Z,1012
2023-01-13T11:23:02.471Z,1012
2023-01-13T11:24:02.309Z,1012
2023-01-13T11:25:02.458Z,1012.1
2023-01-13T11:26:02.332Z,1012
2023-01-13T11:27:02.144Z,1012.1
2023-01-13T11:28:02.098Z,1012
2023-01-13T11:29:01.934Z,1012.1
2023-01-13T11:30:01.997Z,1012
2023-01-13T11:31:01.892Z,1012
2023-01-13T11:32:01.913Z,1012.1
2023-01-13T11:33:01.992Z,1011.9
2023-01-13T11:34:01.908Z,1011.9
2023-01-13T11:35:02.003Z,1011.9
2023-01-13T11:36:01.798Z,1011.9
2023-01-13T11:37:01.923Z,1012
2023-01-13T11:38:01.745Z,1012
2023-01-13T11:39:02.796Z,1011.9
2023-01-13T11:40:02.656Z,1012
2023-01-13T11:41:02.677Z,1012
2023-01-13T11:42:02.539Z,1011.9
2023-01-13T11:43:02.669Z,1011.9
2023-01-13T11:44:02.421Z,1012
2023-01-13T11:45:02.466Z,1012.1
2023-01-13T11:46:02.363Z,1011.9
2023-01-13T11:47:02.231Z,1011.9
2023-01-13T11:48:02.164Z,1011.8
2023-01-13T11:49:01.968Z,1011.9
2023-01-13T11:50:02.085Z,1011.7
2023-01-13T11:51:01.925Z,1011.7
2023-01-13T11:52:02.042Z,1011.8
2023-01-13T11:53:01.947Z,1011.6
2023-01-13T11:54:01.858Z,1011.7
2023-01-13T11:55:01.758Z,1011.6
2023-01-13T11:56:02.788Z,1011.7
2023-01-13T11:57:02.586Z,1011.7
2023-01-13T11:58:02.591Z,1011.7
2023-01-13T11:59:02.440Z,1011.7
2023-01-13T12:00:02.531Z,1011.7
2023-01-13T12:01:02.630Z,1011.7
2023-01-13T12:02:02.582Z,1011.8
2023-01-13T12:03:02.662Z,1011.7
2023-01-13T12:04:02.536Z,1011.7
2023-01-13T12:05:02.331Z,1011.8
2023-01-13T12:06:02.368Z,1011.8
2023-01-13T12:07:02.307Z,1011.6
2023-01-13T12:08:02.143Z,1011.6
2023-01-13T12:09:02.262Z,1011.6
2023-01-13T12:10:05.261Z,1011.7
2023-01-13T12:11:02.225Z,1011.5
2023-01-13T12:12:02.293Z,1011.5
2023-01-13T12:13:02.131Z,1011.6
2023-01-13T12:14:02.153Z,1011.5
2023-01-13T12:15:01.993Z,1011.5
2023-01-13T12:16:02.137Z,1011.6
2023-01-13T12:17:01.989Z,1011.5
2023-01-13T12:18:02.012Z,1011.6
2023-01-13T12:19:01.840Z,1011.5
2023-01-13T12:20:01.889Z,1011.7
2023-01-13T12:21:02.793Z,1011.7
2023-01-13T12:22:02.640Z,1011.7
2023-01-13T12:23:02.689Z,1011.6
2023-01-13T12:24:02.554Z,1011.7
2023-01-13T12:25:02.590Z,1011.6
2023-01-13T12:26:02.643Z,1011.4
2023-01-13T12:27:02.715Z,1011.7
2023-01-13T12:28:02.544Z,1011.6
2023-01-13T12:29:02.873Z,1011.7
2023-01-13T12:30:02.758Z,1011.6
2023-01-13T12:31:02.646Z,1011.7
2023-01-13T12:32:02.736Z,1011.8
2023-01-13T12:33:02.615Z,1011.9
2023-01-13T12:34:02.482Z,1011.7